Fort Liard, Canada
Current Conditions -  °F | °C
As of 5:00 AM on Sunday 25 Jan 2015 (Local Time) from CYYE Reporting Station
Haze Haze  
Wind Chill: -15°   Ceiling: 2000
Heat Index: -8°   Visibility: 4mi
Dew Point: -10°   Wind: 12mph
Humidity: 86%   Direction: 310°NW
Pressure: 29.34"   Gusts: 18mph
Location:  60.23°N, 123.48°W
Report Text: CYYE 251200Z 31010G16KT 4SM BR SCT007 OVC020 M08/M10 A2934 RMK SF4SC4 SLP961
Loading
Personal Weather Stations






























Interactive Weather Map New forecast layout! Learn more

10-Day Weather Forecast

Advertisements
Track Severe Weather on mobile